Relevés horaires Bierset (Belgique)


Relevés horaires à Bierset - Vendredi 06 Juill. 2018
Heure UTC1 Température [°C] Vent [km/h] Hum. [%] Pres.4 [hPa] Visi. [Km] Nébu. [octa] Préc.5 [mm] Cond.
2m. Res. Ros. Dir.2 Vit. Moy. Raf.3
23:00 20.1 20.1 14.5 O 1.9 1.9 1.9 70 1022.4(0.9/3h) 25 8/8 -- --
22:00 20.5 20.5 14.2 O 1.9 1.9 1.9 67 1022.3(1.3/3h) 30 6/8 -- --
21:00 21.7 21.7 13.7 NNO 1.9 5.6 7.4 60 1021.9(1.0/3h) 30 6/8 -- --
20:00 22.6 22.6 13.6 NO 1.9 1.9 3.7 57 1021.3(0.4/3h) 30 6/8 -- --
19:00 23.4 23.4 13.1 N 1.9 5.6 7.4 52 1020.8(-0.2/3h) 30 6/8 -- --
18:00 24.4 24.4 13.1 N 3.7 7.4 13.0 49 1020.8(0.1/3h) 30 7/8 0/12h
--
17:00 25.0 25.0 12.7 NNO 5.6 5.6 9.3 46 1020.7(0.2/3h) 30 7/8 -- --
16:00 24.1 24.1 12.3 NNE 5.6 7.4 11.1 48 1021(0.3/3h) 30 6/8 -- --
15:00 25.0 25.0 11.5 N 5.6 7.4 13.0 43 1020.6(-0.1/3h) 30 6/8 -- --
14:00 25.4 25.4 12.2 NNO 7.4 7.4 11.1 44 1020.5(-0.2/3h) 30 4/8 -- --
13:00 24.9 24.9 11.9 N 3.7 7.4 11.1 44 1020.6(0.1/3h) 30 3/8 -- --
12:00 23.8 23.8 12.0 N 3.7 7.4 11.1 48 1020.8(0.2/3h) 20 1/8 0/6h
--
11:00 23.2 23.2 12.2 NNO 5.6 7.4 11.1 50 1020.9(0.7/3h) 20 1/8 -- --
10:00 21.5 21.5 12.8 NNO 3.7 5.6 11.1 58 1020.9(0.8/3h) 25 2/8 -- --
09:00 19.9 19.9 12.5 N 5.6 5.6 9.3 62 1020.9(1.1/3h) 20 2/8 -- --
08:00 18.2 18.2 13.3 N 3.7 3.7 7.4 73 1020.5(1.1/3h) 10 2/8 -- --
07:00 16.6 16.6 13.8 NNO 0.0 3.7 5.6 84 1020.4(1.4/3h) 9 6/8 -- --
06:00 15.6 15.6 13.4 NO 1.9 3.7 5.6 87 1020.1(1.2/3h) 10 4/8 0/12h
--
05:00 14.3 14.3 12.8 ONO 1.9 1.9 3.7 91 1019.7(1.0/3h) 10 4/8 -- --
04:00 13.8 13.8 12.1 NNO 0.0 3.7 3.7 89 1019.2(0.9/3h) 15 5/8 -- --
03:00 14.6 14.6 12.5 NO 1.9 3.7 5.6 87 1019(0.7/3h) 25 0/8 -- --
02:00 14.5 14.5 12.2 ONO 1.9 1.9 3.7 86 1018.7(0.9/3h) 25 0/8 -- --
01:00 15.0 15.0 12.4 NNO 1.9 3.7 5.6 84 1018.3(0.9/3h) 25 2/8 -- --
00:00 16.3 16.3 11.9 NO 3.7 7.4 13.0 75 1018.1(1.4/3h) 25 2/8 0/6h
0/24h
--

1 Coordinated Universal Time. Actuellement il est 11:00 locale et 09:00 UTC.

2 Le vent souffle depuis la direction indiquée vers la direction oposée.

3 Les rafales max. sont disponible 40 min après l'heure du relevé.

4 Pour les stations d'altitude (plus de 600m) le géopotentiel du niveau le plus proche de la pression obligatoire est indiqué.

5 Les stations disposant d'un diffuseur peuvent indiquer "trace". Cela signifie que des précipitations ont touchés le sol mais que la quantité est inférieure à 0.1 mm.

Récapitulatif de la journée
Température [°C] Vent [km/h] Ensoleillement4 [h] Precipitations totale5 [mm] Pression [Hpa]
Min1 Max.2 Moy.3 Max. Min Max.
13.7 26.8 5 13.0 0 h 0 min 0 1018.1 1022.4

1 Température minimale relevée entre 18:00 UTC la veille et 18:00 UTC le jour donné.

2 Température maximale relevée entre 06:00 UTC le jour donné et 06:00 UTC le lendemain.

3 Vent moyen de la journée basé sur les relevés horaires.

4 Ensoleillement en heures relevé entre 06:00 UTC la veille et 06:00 UTC le jour donné.

5 Précipitations totales tombées entre 06:00 UTC la jour donné et 06:00 UTC le lendemain.

Graphiques horaires